Time;durP1;ratioP1;P1;durP2;ratioP2;P2;SDS_P1;SDS_P2;PMS_P1;PMS_P2;Temp;Humidity;BMP_temperature;BMP_pressure;BME280_temperature;BME280_humidity;BME280_pressure;Samples;Min_cycle;Max_cycle;Signal;HPM_P1;HPM_P2
2022/10/15 00:00:09;;;;;;;6.10;3.15;;;;;;;;;;6005030;23;20029;-86
2022/10/15 00:03:25;;;;;;;2.50;2.30;;;;;;;;;;6012303;23;20046;-86
2022/10/15 00:06:23;;;;;;;3.47;2.15;;;;;;;;;;6021410;23;20123;-86
2022/10/15 00:08:55;;;;;;;1.55;1.40;;;;;;;;;;5996500;23;20491;-85
2022/10/15 00:11:25;;;;;;;2.13;1.95;;;;;;;;;;6076652;23;20029;-84
2022/10/15 00:14:03;;;;;;;1.98;1.85;;;;;;;;;;6107414;23;20021;-85
2022/10/15 00:16:33;;;;;;;2.97;2.50;;;;;;;;;;6165296;23;20014;-85
2022/10/15 00:19:01;;;;;;;3.72;1.95;;;;;;;;;;6128619;23;20445;-85
2022/10/15 00:21:29;;;;;;;2.25;2.05;;;;;;;;;;6140838;23;20028;-85
2022/10/15 00:23:57;;;;;;;6.45;2.08;;;;;;;;;;6105313;23;20041;-85
2022/10/15 00:26:27;;;;;;;1.67;1.58;;;;;;;;;;6128930;23;20025;-85
2022/10/15 00:28:56;;;;;;;2.42;1.92;;;;;;;;;;6106258;23;20017;-85
2022/10/15 00:31:26;;;;;;;7.03;2.72;;;;;;;;;;6105718;23;20346;-85
2022/10/15 00:33:58;;;;;;;3.53;2.70;;;;;;;;;;6163527;23;20033;-85
2022/10/15 00:36:27;;;;;;;3.05;2.28;;;;;;;;;;6105408;23;20329;-84
2022/10/15 00:38:55;;;;;;;1.85;1.75;;;;;;;;;;6134598;23;20029;-85
2022/10/15 00:41:28;;;;;;;6.95;2.22;;;;;;;;;;6140111;23;20476;-84
2022/10/15 00:44:00;;;;;;;1.83;1.73;;;;;;;;;;6155478;23;20018;-85
2022/10/15 00:46:28;;;;;;;1.65;1.50;;;;;;;;;;6161306;23;20021;-85
2022/10/15 00:49:02;;;;;;;4.03;3.13;;;;;;;;;;6105727;23;20025;-88
2022/10/15 00:51:32;;;;;;;1.65;1.55;;;;;;;;;;6157316;23;20022;-85
2022/10/15 00:54:03;;;;;;;2.40;1.77;;;;;;;;;;6164822;23;20325;-85
2022/10/15 00:56:31;;;;;;;2.30;2.13;;;;;;;;;;6105754;23;20021;-85
2022/10/15 00:58:59;;;;;;;2.40;2.20;;;;;;;;;;6134705;23;20021;-85
2022/10/15 01:01:27;;;;;;;2.25;2.15;;;;;;;;;;6140137;23;20010;-85
2022/10/15 01:03:55;;;;;;;2.92;2.63;;;;;;;;;;6155204;23;20040;-84
2022/10/15 01:06:26;;;;;;;2.50;2.10;;;;;;;;;;6128637;23;20033;-86
2022/10/15 01:08:55;;;;;;;6.32;2.53;;;;;;;;;;6135176;23;20029;-85
2022/10/15 01:11:23;;;;;;;4.75;2.03;;;;;;;;;;6075676;23;20029;-85
2022/10/15 01:14:00;;;;;;;2.28;2.13;;;;;;;;;;6076066;23;20341;-85
2022/10/15 01:16:49;;;;;;;2.30;2.10;;;;;;;;;;6134930;23;20029;-85
2022/10/15 01:19:20;;;;;;;2.22;2.03;;;;;;;;;;6103954;23;20033;-85
2022/10/15 01:21:52;;;;;;;3.30;2.25;;;;;;;;;;6135360;23;20018;-85
2022/10/15 01:24:42;;;;;;;2.35;2.10;;;;;;;;;;6076596;23;20014;-85
2022/10/15 01:27:13;;;;;;;1.67;1.58;;;;;;;;;;6104486;23;20018;-85
2022/10/15 01:29:51;;;;;;;2.53;2.15;;;;;;;;;;6110388;23;20014;-84
2022/10/15 01:32:25;;;;;;;2.22;2.08;;;;;;;;;;6108719;23;20358;-85
2022/10/15 01:34:55;;;;;;;2.78;2.50;;;;;;;;;;6076229;23;20029;-86
2022/10/15 01:37:31;;;;;;;3.25;2.53;;;;;;;;;;6076206;23;20018;-85
2022/10/15 01:40:09;;;;;;;2.55;2.35;;;;;;;;;;6126448;23;20037;-85
2022/10/15 01:42:42;;;;;;;2.78;2.35;;;;;;;;;;6094124;23;20022;-85
2022/10/15 01:45:10;;;;;;;;;;;;;;;;;;6100756;23;20029;-85
2022/10/15 01:48:09;;;;;;;2.15;2.00;;;;;;;;;;6106720;23;19921;-85
2022/10/15 01:50:43;;;;;;;3.65;2.50;;;;;;;;;;6106044;23;20049;-85
2022/10/15 01:53:13;;;;;;;2.55;2.00;;;;;;;;;;6076574;23;20022;-85
2022/10/15 01:55:42;;;;;;;2.60;2.40;;;;;;;;;;6099731;23;20075;-85
2022/10/15 01:58:11;;;;;;;2.05;1.85;;;;;;;;;;6132498;23;20326;-85
2022/10/15 02:00:41;;;;;;;5.43;2.47;;;;;;;;;;6076255;23;20014;-85
2022/10/15 02:03:12;;;;;;;2.78;2.58;;;;;;;;;;6103839;23;20022;-85
2022/10/15 02:05:43;;;;;;;2.35;2.15;;;;;;;;;;6134908;23;20029;-85
2022/10/15 02:08:19;;;;;;;2.22;2.03;;;;;;;;;;6099508;23;20033;-85
2022/10/15 02:11:04;;;;;;;3.20;2.90;;;;;;;;;;6105327;23;20337;-86
2022/10/15 02:13:52;;;;;;;2.78;2.58;;;;;;;;;;6076418;23;20018;-85
2022/10/15 02:16:23;;;;;;;2.72;2.50;;;;;;;;;;6098963;23;20026;-85
2022/10/15 02:18:57;;;;;;;8.57;2.75;;;;;;;;;;6099476;23;20022;-86
2022/10/15 02:21:31;;;;;;;2.40;2.08;;;;;;;;;;6076533;23;20022;-84
2022/10/15 02:24:05;;;;;;;2.05;1.92;;;;;;;;;;6076124;23;20025;-86
2022/10/15 02:26:36;;;;;;;1.98;1.88;;;;;;;;;;6094136;23;20029;-86
2022/10/15 02:29:05;;;;;;;2.83;2.63;;;;;;;;;;6105389;23;20021;-87
2022/10/15 02:31:34;;;;;;;2.60;2.43;;;;;;;;;;6096585;23;20030;-86
2022/10/15 02:34:04;;;;;;;2.85;2.50;;;;;;;;;;6070540;23;20026;-87
2022/10/15 02:36:32;;;;;;;3.85;2.42;;;;;;;;;;6080802;23;20322;-86
2022/10/15 02:39:05;;;;;;;2.67;2.47;;;;;;;;;;6047129;23;20493;-86
2022/10/15 02:41:34;;;;;;;2.28;2.08;;;;;;;;;;6047662;23;20022;-86
2022/10/15 02:44:02;;;;;;;2.28;2.08;;;;;;;;;;6097091;23;20037;-86
2022/10/15 02:46:32;;;;;;;2.88;2.60;;;;;;;;;;6102974;23;20022;-85
2022/10/15 02:49:00;;;;;;;2.22;2.03;;;;;;;;;;6072910;23;20014;-87
2022/10/15 02:51:32;;;;;;;5.55;2.88;;;;;;;;;;6122783;23;20022;-86
2022/10/15 02:54:03;;;;;;;1.85;1.73;;;;;;;;;;6105659;23;20018;-85
2022/10/15 02:56:31;;;;;;;2.03;1.83;;;;;;;;;;6073289;23;20038;-86
2022/10/15 02:58:59;;;;;;;3.50;3.08;;;;;;;;;;6072588;23;20022;-86
2022/10/15 03:01:29;;;;;;;2.47;2.33;;;;;;;;;;6049025;23;20029;-85
2022/10/15 03:03:58;;;;;;;2.25;2.08;;;;;;;;;;6096587;23;20034;-85
2022/10/15 03:06:26;;;;;;;2.20;2.10;;;;;;;;;;6071705;23;20014;-85
2022/10/15 03:08:54;;;;;;;2.58;2.38;;;;;;;;;;6107202;23;20018;-86
2022/10/15 03:11:23;;;;;;;2.03;1.88;;;;;;;;;;6099350;23;20030;-85
2022/10/15 03:13:51;;;;;;;2.40;2.00;;;;;;;;;;6072380;23;20018;-86
2022/10/15 03:16:21;;;;;;;4.85;1.67;;;;;;;;;;6106315;23;20634;-85
2022/10/15 03:18:48;;;;;;;2.40;2.03;;;;;;;;;;6102165;23;20354;-85
2022/10/15 03:21:18;;;;;;;4.53;3.08;;;;;;;;;;6082860;23;20022;-85
2022/10/15 03:23:46;;;;;;;5.13;1.80;;;;;;;;;;6071933;23;20469;-85
2022/10/15 03:26:19;;;;;;;2.38;1.90;;;;;;;;;;6075105;23;20018;-86
2022/10/15 03:28:50;;;;;;;2.25;1.60;;;;;;;;;;6082859;23;20018;-85
2022/10/15 03:31:31;;;;;;;2.25;1.30;;;;;;;;;;6050917;23;20026;-85
2022/10/15 03:34:04;;;;;;;1.73;1.63;;;;;;;;;;6081226;23;20021;-85
2022/10/15 03:36:32;;;;;;;1.38;1.27;;;;;;;;;;6073564;23;20014;-85
2022/10/15 03:39:01;;;;;;;1.40;1.30;;;;;;;;;;6076918;23;20029;-85
2022/10/15 03:41:29;;;;;;;1.33;1.23;;;;;;;;;;6082937;23;20026;-84
2022/10/15 03:44:01;;;;;;;10.48;1.30;;;;;;;;;;6073303;23;20470;-85
2022/10/15 03:46:30;;;;;;;1.33;1.23;;;;;;;;;;6048391;23;20018;-84
2022/10/15 03:49:00;;;;;;;1.92;1.13;;;;;;;;;;6083021;23;20018;-84
2022/10/15 03:51:29;;;;;;;1.10;1.08;;;;;;;;;;6075314;23;20014;-86
2022/10/15 03:54:06;;;;;;;1.70;1.60;;;;;;;;;;6082330;23;20029;-85
2022/10/15 03:56:42;;;;;;;3.47;1.58;;;;;;;;;;6081953;23;20015;-85
2022/10/15 03:59:27;;;;;;;2.35;2.05;;;;;;;;;;6078717;23;20473;-86
2022/10/15 04:01:58;;;;;;;1.50;1.27;;;;;;;;;;6048905;23;20022;-87
2022/10/15 04:04:27;;;;;;;1.98;1.55;;;;;;;;;;6072374;23;20022;-86
2022/10/15 04:06:57;;;;;;;1.80;1.20;;;;;;;;;;6076682;23;20019;-85
2022/10/15 04:09:26;;;;;;;3.85;1.38;;;;;;;;;;6049162;23;20469;-85
2022/10/15 04:12:12;;;;;;;2.85;1.55;;;;;;;;;;6072108;23;20022;-84
2022/10/15 04:14:40;;;;;;;1.60;1.50;;;;;;;;;;6078243;23;20328;-85
2022/10/15 04:17:08;;;;;;;2.67;2.47;;;;;;;;;;6082322;23;20022;-84
2022/10/15 04:19:36;;;;;;;1.30;1.20;;;;;;;;;;6074456;23;20019;-85
2022/10/15 04:22:04;;;;;;;1.70;1.60;;;;;;;;;;6080612;23;20021;-85
2022/10/15 04:24:40;;;;;;;1.63;1.52;;;;;;;;;;6050022;23;20358;-85
2022/10/15 04:27:08;;;;;;;1.20;1.10;;;;;;;;;;6047664;23;20045;-85
2022/10/15 04:29:36;;;;;;;1.30;1.05;;;;;;;;;;6107501;23;20018;-85
2022/10/15 04:32:14;;;;;;;0.93;0.93;;;;;;;;;;6049352;23;20022;-86
2022/10/15 04:34:44;;;;;;;1.73;1.63;;;;;;;;;;6047966;23;20343;-85
2022/10/15 04:37:15;;;;;;;1.70;1.60;;;;;;;;;;6048620;23;20015;-85
2022/10/15 04:39:43;;;;;;;1.15;1.13;;;;;;;;;;6058155;23;20018;-85
2022/10/15 04:42:17;;;;;;;1.27;1.17;;;;;;;;;;6047485;23;20023;-85
2022/10/15 04:44:45;;;;;;;2.85;1.17;;;;;;;;;;6048617;23;20358;-85
2022/10/15 04:47:13;;;;;;;1.08;0.98;;;;;;;;;;6075923;23;20022;-85
2022/10/15 04:49:44;;;;;;;1.90;1.75;;;;;;;;;;6049035;23;20073;-85
2022/10/15 04:52:39;;;;;;;0.90;0.90;;;;;;;;;;6054121;23;20033;-85
2022/10/15 04:55:11;;;;;;;1.05;1.05;;;;;;;;;;6047655;23;20027;-85
2022/10/15 04:57:39;;;;;;;1.00;1.00;;;;;;;;;;6047802;23;20025;-84
2022/10/15 05:00:07;;;;;;;0.88;0.82;;;;;;;;;;6047672;23;20022;-84
2022/10/15 05:02:53;;;;;;;0.50;0.50;;;;;;;;;;6051032;23;20355;-85
2022/10/15 05:05:35;;;;;;;0.68;0.68;;;;;;;;;;6050620;23;20021;-84
2022/10/15 05:08:04;;;;;;;0.60;0.60;;;;;;;;;;6047104;23;20473;-84
2022/10/15 05:11:27;;;;;;;0.73;0.73;;;;;;;;;;6076720;23;20022;-85
2022/10/15 05:13:57;;;;;;;1.05;0.60;;;;;;;;;;6080882;23;20018;-85
2022/10/15 05:16:27;;;;;;;1.65;0.75;;;;;;;;;;6047608;23;20343;-85
2022/10/15 05:18:58;;;;;;;0.93;0.93;;;;;;;;;;6076483;23;20437;-85
2022/10/15 05:21:30;;;;;;;0.90;0.50;;;;;;;;;;6081777;23;20014;-86
2022/10/15 05:24:02;;;;;;;0.45;0.45;;;;;;;;;;6072739;23;20030;-84
2022/10/15 05:26:54;;;;;;;1.38;0.47;;;;;;;;;;6071473;23;20351;-84
2022/10/15 05:29:23;;;;;;;0.63;0.63;;;;;;;;;;6048075;23;20014;-88
2022/10/15 05:31:51;;;;;;;1.45;0.50;;;;;;;;;;6073064;23;20030;-86
2022/10/15 05:34:25;;;;;;;3.22;1.95;;;;;;;;;;6078248;23;20026;-85
2022/10/15 05:36:58;;;;;;;1.08;0.60;;;;;;;;;;6080916;23;20022;-84
2022/10/15 05:39:28;;;;;;;0.97;0.97;;;;;;;;;;6047432;23;20469;-86
2022/10/15 05:41:57;;;;;;;0.60;0.60;;;;;;;;;;6047162;23;20021;-85
2022/10/15 05:44:35;;;;;;;0.40;0.40;;;;;;;;;;6081211;23;20304;-84
2022/10/15 05:47:03;;;;;;;0.50;0.50;;;;;;;;;;6075427;23;20034;-84
2022/10/15 05:49:32;;;;;;;5.93;0.85;;;;;;;;;;6081513;23;20015;-85
2022/10/15 05:52:15;;;;;;;8.95;0.82;;;;;;;;;;6046659;23;20018;-85
2022/10/15 05:55:04;;;;;;;0.50;0.50;;;;;;;;;;6045864;23;20450;-87
2022/10/15 05:57:38;;;;;;;0.60;0.60;;;;;;;;;;6083024;23;20014;-85
2022/10/15 06:00:06;;;;;;;0.50;0.50;;;;;;;;;;6047448;23;20033;-84
2022/10/15 06:02:40;;;;;;;1.65;0.50;;;;;;;;;;6102597;23;20438;-85
2022/10/15 06:05:08;;;;;;;0.55;0.50;;;;;;;;;;6081088;23;20021;-84
2022/10/15 06:07:37;;;;;;;0.40;0.40;;;;;;;;;;6046928;23;20343;-84
2022/10/15 06:10:05;;;;;;;4.68;0.70;;;;;;;;;;6071789;23;20625;-84
2022/10/15 06:12:34;;;;;;;0.50;0.43;;;;;;;;;;6047942;23;20018;-83
2022/10/15 06:15:02;;;;;;;0.50;0.50;;;;;;;;;;6070629;23;20022;-86
2022/10/15 06:17:30;;;;;;;0.55;0.50;;;;;;;;;;6081550;23;20010;-84
2022/10/15 06:19:57;;;;;;;0.45;0.45;;;;;;;;;;6071449;23;20397;-84
2022/10/15 06:22:25;;;;;;;0.50;0.50;;;;;;;;;;6103597;23;20030;-84
2022/10/15 06:24:53;;;;;;;1.85;1.38;;;;;;;;;;6079751;23;20021;-84
2022/10/15 06:27:21;;;;;;;2.47;0.60;;;;;;;;;;6095041;23;20018;-84
2022/10/15 06:29:49;;;;;;;0.40;0.40;;;;;;;;;;6047263;23;20019;-84
2022/10/15 06:32:17;;;;;;;0.40;0.40;;;;;;;;;;6081714;23;20022;-84
2022/10/15 06:34:44;;;;;;;2.08;0.50;;;;;;;;;;6046811;23;20019;-84
2022/10/15 06:37:12;;;;;;;0.50;0.50;;;;;;;;;;6094943;23;20018;-83
2022/10/15 06:39:40;;;;;;;0.50;0.45;;;;;;;;;;6098627;23;20019;-84
2022/10/15 06:42:08;;;;;;;0.50;0.50;;;;;;;;;;6079059;23;20015;-84
2022/10/15 06:44:38;;;;;;;0.50;0.50;;;;;;;;;;6047309;23;20455;-84
2022/10/15 06:47:09;;;;;;;;;;;;;;;;;;6070005;23;20740;-84
2022/10/15 06:49:37;;;;;;;0.98;0.98;;;;;;;;;;6071395;23;19921;-84
2022/10/15 06:52:05;;;;;;;0.80;0.80;;;;;;;;;;6022190;23;20033;-84
2022/10/15 06:54:33;;;;;;;0.43;0.40;;;;;;;;;;6077603;23;20343;-85
2022/10/15 06:57:01;;;;;;;0.30;0.30;;;;;;;;;;6047514;23;20019;-85
2022/10/15 06:59:28;;;;;;;28.70;2.15;;;;;;;;;;6073225;23;20019;-87
2022/10/15 07:02:00;;;;;;;0.47;0.47;;;;;;;;;;6047239;23;20339;-85
2022/10/15 07:04:28;;;;;;;0.47;0.47;;;;;;;;;;6047164;23;20358;-85
2022/10/15 07:06:55;;;;;;;3.78;0.55;;;;;;;;;;6100247;23;20037;-83
2022/10/15 07:09:24;;;;;;;0.93;0.50;;;;;;;;;;6070296;23;20014;-87
2022/10/15 07:11:52;;;;;;;0.85;0.85;;;;;;;;;;6046617;23;20019;-84
2022/10/15 07:14:19;;;;;;;0.35;0.35;;;;;;;;;;6103543;23;20022;-86
2022/10/15 07:16:48;;;;;;;1.27;0.40;;;;;;;;;;6047377;23;20099;-85
2022/10/15 07:19:15;;;;;;;0.40;0.40;;;;;;;;;;6046985;23;20462;-85
2022/10/15 07:21:44;;;;;;;0.55;0.50;;;;;;;;;;6047409;23;20030;-87
2022/10/15 07:24:13;;;;;;;1.23;0.40;;;;;;;;;;6047038;23;20030;-83
2022/10/15 07:26:41;;;;;;;0.47;0.47;;;;;;;;;;6071170;23;20030;-86
2022/10/15 07:29:09;;;;;;;0.65;0.65;;;;;;;;;;6074577;23;20014;-84
2022/10/15 07:31:38;;;;;;;0.40;0.40;;;;;;;;;;6076802;23;20034;-85
2022/10/15 07:34:06;;;;;;;0.43;0.43;;;;;;;;;;6135722;23;20010;-84
2022/10/15 07:36:34;;;;;;;0.30;0.30;;;;;;;;;;6111382;23;20427;-90
2022/10/15 07:39:01;;;;;;;1.13;0.50;;;;;;;;;;6076745;23;20022;-85
2022/10/15 07:41:33;;;;;;;1.65;1.00;;;;;;;;;;6137332;23;20010;-86
2022/10/15 07:44:00;;;;;;;;;;;;;;;;;;6102225;23;20022;-83
2022/10/15 07:46:28;;;;;;;0.40;0.40;;;;;;;;;;6126357;23;19921;-86
2022/10/15 07:48:57;;;;;;;0.40;0.40;;;;;;;;;;6111451;23;20021;-86
2022/10/15 07:51:24;;;;;;;0.35;0.35;;;;;;;;;;6129113;23;20357;-85
2022/10/15 07:53:52;;;;;;;0.57;0.57;;;;;;;;;;6135942;23;20024;-84
2022/10/15 07:56:20;;;;;;;0.40;0.40;;;;;;;;;;6111387;23;20307;-84
2022/10/15 07:58:50;;;;;;;0.30;0.30;;;;;;;;;;6099742;23;20034;-85
2022/10/15 08:01:19;;;;;;;0.83;0.47;;;;;;;;;;6077439;23;20468;-84
2022/10/15 08:03:48;;;;;;;0.43;0.43;;;;;;;;;;6100841;23;20277;-85
2022/10/15 08:06:21;;;;;;;0.60;0.60;;;;;;;;;;6076459;23;20029;-84
2022/10/15 08:08:49;;;;;;;0.68;0.40;;;;;;;;;;6100911;23;20025;-84
2022/10/15 08:11:17;;;;;;;0.63;0.63;;;;;;;;;;6104481;23;20030;-86
2022/10/15 08:13:47;;;;;;;0.30;0.30;;;;;;;;;;6135819;23;20017;-85
2022/10/15 08:17:09;;;;;;;0.68;0.47;;;;;;;;;;6099532;23;20022;-85
2022/10/15 08:20:19;;;;;;;;;;;;;;;;;;;;;
2022/10/15 08:23:18;;;;;;;0.38;0.38;;;;;;;;;;6075113;23;20029;-88
2022/10/15 08:29:45;;;;;;;;;;;;;;;;;;;;;
2022/10/15 08:32:30;;;;;;;0.40;0.40;;;;;;;;;;6085651;23;20033;-93
2022/10/15 08:35:13;;;;;;;0.40;0.40;;;;;;;;;;6077025;23;20026;-88
2022/10/15 08:38:20;;;;;;;0.40;0.40;;;;;;;;;;6110982;23;20025;-89
2022/10/15 08:41:40;;;;;;;1.05;1.05;;;;;;;;;;6077369;23;20022;-86
2022/10/15 08:44:41;;;;;;;3.42;0.65;;;;;;;;;;5989983;23;20039;-88
2022/10/15 08:47:47;;;;;;;0.32;0.32;;;;;;;;;;6012568;23;20027;-88
2022/10/15 08:50:43;;;;;;;0.57;0.57;;;;;;;;;;6032291;23;20023;-88
2022/10/15 08:53:13;;;;;;;0.47;0.47;;;;;;;;;;6040225;23;20900;-87
2022/10/15 08:56:38;;;;;;;0.40;0.40;;;;;;;;;;6013248;23;20337;-90
2022/10/15 08:59:40;;;;;;;;;;;;;;;;;;;;;
2022/10/15 09:02:40;;;;;;;0.57;0.38;;;;;;;;;;6020097;23;20019;-91
2022/10/15 09:06:25;;;;;;;0.40;0.40;;;;;;;;;;6054189;23;20022;-88
2022/10/15 09:09:27;;;;;;;0.70;0.50;;;;;;;;;;6157730;23;20025;-88
2022/10/15 09:12:29;;;;;;;0.40;0.40;;;;;;;;;;6039612;23;20025;-87
2022/10/15 09:14:57;;;;;;;0.50;0.50;;;;;;;;;;6105153;23;20025;-86
2022/10/15 09:17:35;;;;;;;1.27;0.80;;;;;;;;;;6100919;23;20014;-86
2022/10/15 09:20:39;;;;;;;0.52;0.52;;;;;;;;;;6075919;23;20497;-87
2022/10/15 09:24:54;;;;;;;0.70;0.70;;;;;;;;;;6131144;23;20330;-92
2022/10/15 09:27:36;;;;;;;1.15;0.73;;;;;;;;;;6078560;23;20040;-92
2022/10/15 09:30:12;;;;;;;0.68;0.68;;;;;;;;;;6105726;23;20021;-87
2022/10/15 09:32:45;;;;;;;0.55;0.55;;;;;;;;;;6129797;23;20629;-85
2022/10/15 09:35:36;;;;;;;1.00;0.55;;;;;;;;;;6126061;23;20014;-90
2022/10/15 09:38:53;;;;;;;;;;;;;;;;;;;;;
2022/10/15 09:46:11;;;;;;;0.63;0.55;;;;;;;;;;6130972;23;20021;-89
2022/10/15 09:49:46;;;;;;;0.40;0.40;;;;;;;;;;6152000;23;20030;-87
2022/10/15 09:53:10;;;;;;;1.17;1.15;;;;;;;;;;6165297;23;20326;-86
2022/10/15 09:56:46;;;;;;;0.60;0.60;;;;;;;;;;6127048;23;20029;-88
2022/10/15 10:04:14;;;;;;;0.60;0.60;;;;;;;;;;6092338;23;20126;-90
2022/10/15 10:07:20;;;;;;;0.50;0.50;;;;;;;;;;6053620;23;20486;-89
2022/10/15 10:10:26;;;;;;;0.98;0.80;;;;;;;;;;5950160;23;20035;-90
2022/10/15 10:13:06;;;;;;;0.75;0.50;;;;;;;;;;6014950;23;20030;-90
2022/10/15 10:16:09;;;;;;;0.95;0.70;;;;;;;;;;5990289;23;20364;31
2022/10/15 10:19:00;;;;;;;1.98;0.50;;;;;;;;;;6059687;23;20026;-89
2022/10/15 10:21:38;;;;;;;0.57;0.57;;;;;;;;;;6092157;23;20455;-89
2022/10/15 10:24:33;;;;;;;0.43;0.43;;;;;;;;;;5972116;23;20039;-90
2022/10/15 10:34:49;;;;;;;0.65;0.60;;;;;;;;;;6128616;23;20025;-90
2022/10/15 11:17:27;;;;;;;;;;;;;;;;;;;;;
2022/10/15 11:24:52;;;;;;;0.63;0.52;;;;;;;;;;6181182;23;20025;-88
2022/10/15 11:28:01;;;;;;;0.80;0.40;;;;;;;;;;6099177;23;20030;-88
2022/10/15 11:38:37;;;;;;;0.60;0.60;;;;;;;;;;6171870;23;20605;-85
2022/10/15 11:42:07;;;;;;;0.60;0.60;;;;;;;;;;6125600;23;20032;-86
2022/10/15 11:44:48;;;;;;;1.88;0.95;;;;;;;;;;6171981;23;20028;-86
2022/10/15 11:47:24;;;;;;;0.68;0.68;;;;;;;;;;6188231;23;20025;-87
2022/10/15 11:50:10;;;;;;;0.68;0.68;;;;;;;;;;6160264;23;20021;-89
2022/10/15 11:52:54;;;;;;;0.50;0.50;;;;;;;;;;6195573;23;20021;-89
2022/10/15 11:55:31;;;;;;;0.98;0.73;;;;;;;;;;6184505;23;20032;-87
2022/10/15 11:58:04;;;;;;;1.15;0.93;;;;;;;;;;6195524;23;20017;-88
2022/10/15 12:00:37;;;;;;;0.50;0.50;;;;;;;;;;6160114;23;20444;-91
2022/10/15 12:03:19;;;;;;;0.55;0.55;;;;;;;;;;6189018;23;20036;-88
2022/10/15 12:06:08;;;;;;;;;;;;;;;;;;;;;
2022/10/15 12:08:53;;;;;;;0.82;0.82;;;;;;;;;;6162540;23;20452;-89
2022/10/15 12:12:24;;;;;;;1.58;1.48;;;;;;;;;;6170976;23;20021;-91
2022/10/15 12:15:31;;;;;;;3.00;0.50;;;;;;;;;;6145651;23;20621;-90
2022/10/15 12:18:21;;;;;;;0.60;0.60;;;;;;;;;;6161478;23;20028;-90
2022/10/15 12:20:54;;;;;;;0.65;0.65;;;;;;;;;;6160070;23;20017;-86
2022/10/15 12:23:37;;;;;;;1.65;0.70;;;;;;;;;;6178191;23;20021;-86
2022/10/15 12:26:26;;;;;;;0.57;0.57;;;;;;;;;;6153723;23;20021;-88
2022/10/15 12:29:27;;;;;;;0.50;0.50;;;;;;;;;;6160018;23;20017;-91
2022/10/15 12:32:35;;;;;;;0.47;0.47;;;;;;;;;;6079208;23;20020;-89
2022/10/15 12:38:38;;;;;;;0.50;0.50;;;;;;;;;;6210172;23;20017;-88
2022/10/15 12:41:10;;;;;;;0.50;0.45;;;;;;;;;;6194836;23;20024;-87
2022/10/15 12:43:41;;;;;;;0.40;0.40;;;;;;;;;;6158971;23;20021;-89
2022/10/15 12:46:16;;;;;;;2.40;0.60;;;;;;;;;;6159127;23;20021;-88
2022/10/15 12:48:52;;;;;;;3.95;1.38;;;;;;;;;;6159670;23;20328;-87
2022/10/15 12:51:23;;;;;;;2.05;0.70;;;;;;;;;;6184652;23;20036;-90
2022/10/15 12:53:56;;;;;;;0.68;0.68;;;;;;;;;;6184241;23;20432;-86
2022/10/15 12:56:35;;;;;;;0.40;0.40;;;;;;;;;;6219607;23;20068;-89
2022/10/15 12:59:03;;;;;;;0.50;0.50;;;;;;;;;;6190361;23;20352;-88
2022/10/15 13:01:50;;;;;;;2.83;0.57;;;;;;;;;;6219113;23;20020;-90
2022/10/15 13:04:36;;;;;;;2.88;0.43;;;;;;;;;;6159403;23;20324;-90
2022/10/15 13:07:13;;;;;;;0.60;0.60;;;;;;;;;;6172983;23;20032;-91
2022/10/15 13:09:52;;;;;;;0.40;0.40;;;;;;;;;;6159005;23;20017;-89
2022/10/15 13:12:53;;;;;;;0.40;0.40;;;;;;;;;;6145409;23;20441;-89
2022/10/15 13:16:02;;;;;;;1.67;0.65;;;;;;;;;;6163420;23;20029;-92
2022/10/15 13:18:41;;;;;;;0.40;0.40;;;;;;;;;;6159713;23;20025;-90
2022/10/15 13:21:29;;;;;;;;;;;;;;;;;;6159939;23;20013;-89
2022/10/15 13:24:39;;;;;;;0.40;0.40;;;;;;;;;;6092266;23;19943;-85
2022/10/15 13:27:14;;;;;;;1.65;0.60;;;;;;;;;;6189117;23;20032;-91
2022/10/15 13:30:21;;;;;;;0.50;0.50;;;;;;;;;;6157012;23;20028;-89
2022/10/15 13:33:13;;;;;;;0.45;0.45;;;;;;;;;;6194970;23;20424;-90
2022/10/15 13:36:09;;;;;;;2.70;0.95;;;;;;;;;;6143772;23;20419;-90
2022/10/15 13:38:58;;;;;;;0.57;0.52;;;;;;;;;;6128542;23;20021;-85
2022/10/15 13:41:29;;;;;;;3.05;0.70;;;;;;;;;;6184552;23;20017;-91
2022/10/15 13:44:05;;;;;;;1.92;0.60;;;;;;;;;;6183625;23;20029;-89
2022/10/15 13:46:56;;;;;;;0.60;0.40;;;;;;;;;;6147171;23;20024;-88
2022/10/15 13:49:26;;;;;;;0.73;0.65;;;;;;;;;;6159424;23;20017;-85
2022/10/15 13:51:58;;;;;;;0.60;0.60;;;;;;;;;;6145322;23;20056;-91
2022/10/15 13:54:29;;;;;;;0.50;0.50;;;;;;;;;;6159887;23;20021;-91
2022/10/15 13:57:00;;;;;;;3.22;0.77;;;;;;;;;;6159320;23;20017;-89
2022/10/15 14:00:02;;;;;;;6.72;0.60;;;;;;;;;;6183599;23;20021;-90
2022/10/15 14:03:21;;;;;;;1.60;0.55;;;;;;;;;;6156784;23;20495;-91
2022/10/15 14:06:12;;;;;;;0.47;0.47;;;;;;;;;;6130621;23;20021;-88
2022/10/15 14:08:49;;;;;;;3.40;1.20;;;;;;;;;;6128375;23;20014;-91
2022/10/15 14:11:25;;;;;;;0.52;0.50;;;;;;;;;;6104248;23;20021;-86
2022/10/15 14:14:03;;;;;;;0.40;0.40;;;;;;;;;;6104335;23;20018;-92
2022/10/15 14:16:39;;;;;;;0.52;0.52;;;;;;;;;;6129244;23;20028;-89
2022/10/15 14:19:18;;;;;;;0.60;0.60;;;;;;;;;;6132951;23;20337;-89
2022/10/15 14:22:13;;;;;;;0.70;0.57;;;;;;;;;;6081716;23;20376;-93
2022/10/15 14:24:54;;;;;;;0.50;0.50;;;;;;;;;;6121156;23;20029;-86
2022/10/15 14:27:26;;;;;;;1.17;1.08;;;;;;;;;;6156027;23;20048;-90
2022/10/15 14:34:01;;;;;;;2.78;0.98;;;;;;;;;;6161506;23;20025;-91
2022/10/15 14:36:48;;;;;;;6.25;1.05;;;;;;;;;;6138831;23;20017;-92
2022/10/15 14:43:20;;;;;;;0.77;0.75;;;;;;;;;;6161330;23;20028;-93
2022/10/15 14:49:53;;;;;;;4.38;0.70;;;;;;;;;;6146513;23;20014;-91
2022/10/15 14:53:09;;;;;;;0.75;0.75;;;;;;;;;;6137900;23;20020;-93
2022/10/15 14:56:12;;;;;;;0.57;0.57;;;;;;;;;;6097367;23;20340;-91
2022/10/15 14:59:08;;;;;;;0.50;0.50;;;;;;;;;;6137936;23;20340;-92
2022/10/15 15:02:20;;;;;;;0.65;0.65;;;;;;;;;;6119313;23;20015;-92
2022/10/15 15:05:26;;;;;;;0.35;0.35;;;;;;;;;;6162260;23;20013;-92
2022/10/15 15:15:26;;;;;;;0.70;0.70;;;;;;;;;;6121828;23;20033;-92
2022/10/15 15:18:21;;;;;;;0.50;0.50;;;;;;;;;;6089952;23;20489;-91
2022/10/15 15:21:03;;;;;;;0.45;0.45;;;;;;;;;;6056242;23;20022;-91
2022/10/15 15:23:54;;;;;;;1.20;1.00;;;;;;;;;;6051430;23;20035;-91
2022/10/15 15:26:54;;;;;;;0.52;0.52;;;;;;;;;;6055520;23;20054;-95
2022/10/15 15:29:28;;;;;;;0.60;0.60;;;;;;;;;;6079737;23;20442;-93
2022/10/15 15:32:11;;;;;;;4.15;1.00;;;;;;;;;;6061523;23;20045;-93
2022/10/15 15:35:05;;;;;;;6.63;1.75;;;;;;;;;;6055513;23;20026;-94
2022/10/15 15:38:23;;;;;;;1.38;0.70;;;;;;;;;;6067828;23;20025;-94
2022/10/15 15:45:42;;;;;;;0.70;0.70;;;;;;;;;;6152123;23;20017;-91
2022/10/15 16:09:37;;;;;;;1.35;0.98;;;;;;;;;;6171731;23;20017;-92
2022/10/15 16:12:43;;;;;;;1.25;1.08;;;;;;;;;;6166371;23;20024;-94
2022/10/15 16:15:11;;;;;;;0.87;0.87;;;;;;;;;;6162987;23;20021;-91
2022/10/15 16:17:55;;;;;;;0.60;0.60;;;;;;;;;;6146598;23;20572;-95
2022/10/15 17:48:31;;;;;;;1.25;1.20;;;;;;;;;;6162738;23;20028;31
